Time;durP1;ratioP1;P1;durP2;ratioP2;P2;SDS_P1;SDS_P2;PMS_P1;PMS_P2;Temp;Humidity;BMP_temperature;BMP_pressure;BME280_temperature;BME280_humidity;BME280_pressure;Samples;Min_cycle;Max_cycle;Signal;HPM_P1;HPM_P2
2022/03/03 00:00:50;;;;;;;19.95;15.07;;;0.60;81.50;;;;;;5066860;28;20719;-88
2022/03/03 00:03:18;;;;;;;24.50;15.50;;;;;;;;;;5066834;28;20672;-88
2022/03/03 00:05:45;;;;;;;21.48;15.05;;;;;;;;;;5066593;28;20248;-87
2022/03/03 00:08:13;;;;;;;26.30;16.52;;;;;;;;;;5046052;28;20718;-87
2022/03/03 00:10:40;;;;;;;23.17;16.55;;;;;;;;;;5064831;28;20278;-88
2022/03/03 00:13:08;;;;;;;23.00;16.63;;;0.40;80.70;;;;;;5069930;28;20248;-88
2022/03/03 00:15:35;;;;;;;20.15;16.67;;;0.50;81.50;;;;;;5070128;28;20203;-87
2022/03/03 00:18:04;;;;;;;21.65;16.55;;;0.40;81.60;;;;;;5070228;28;20207;-87
2022/03/03 00:20:31;;;;;;;17.98;14.35;;;0.40;81.60;;;;;;5069320;28;20270;-87
2022/03/03 00:22:58;;;;;;;24.30;15.98;;;;;;;;;;5070335;28;20256;-87
2022/03/03 00:25:25;;;;;;;22.02;14.98;;;0.40;81.40;;;;;;5070346;28;20223;-87
2022/03/03 00:27:52;;;;;;;22.50;15.95;;;0.90;83.70;;;;;;5069258;28;20206;-87
2022/03/03 00:30:19;;;;;;;23.10;15.77;;;;;;;;;;5069915;28;20254;-87
2022/03/03 00:32:46;;;;;;;26.42;15.50;;;;;;;;;;5069591;28;20670;-88
2022/03/03 00:35:14;;;;;;;20.02;14.93;;;0.40;91.50;;;;;;5069409;28;20203;-88
2022/03/03 00:37:42;;;;;;;18.60;13.85;;;;;;;;;;5063366;28;20228;-88
2022/03/03 00:40:10;;;;;;;20.98;15.85;;;0.30;80.70;;;;;;5070922;28;20257;-87
2022/03/03 00:42:38;;;;;;;23.05;15.52;;;;;;;;;;5071924;28;20202;-87
2022/03/03 00:45:05;;;;;;;21.25;15.07;;;0.40;81.10;;;;;;5074432;28;20215;-86
2022/03/03 00:47:33;;;;;;;19.27;14.52;;;;;;;;;;5073451;28;20218;-87
2022/03/03 00:50:00;;;;;;;20.88;14.45;;;;;;;;;;5070539;28;20569;-87
2022/03/03 00:52:28;;;;;;;21.27;15.40;;;0.20;82.50;;;;;;5070514;28;20199;-88
2022/03/03 00:54:55;;;;;;;22.65;14.57;;;;;;;;;;5070345;28;20238;-87
2022/03/03 00:57:23;;;;;;;20.17;15.00;;;;;;;;;;5068987;28;20286;-87
2022/03/03 00:59:50;;;;;;;19.00;15.10;;;;;;;;;;5070474;28;20621;-87
2022/03/03 01:02:17;;;;;;;18.77;14.77;;;;;;;;;;5069523;28;20203;-87
2022/03/03 01:04:44;;;;;;;23.88;15.55;;;;;;;;;;5069705;28;20220;-88
2022/03/03 01:07:11;;;;;;;22.20;14.70;;;;;;;;;;5069779;28;20654;-87
2022/03/03 01:09:41;;;;;;;19.75;15.55;;;0.10;82.70;;;;;;5069750;28;20222;-87
2022/03/03 01:12:10;;;;;;;20.38;15.73;;;0.00;83.30;;;;;;5069518;28;20202;-87
2022/03/03 01:14:38;;;;;;;18.55;14.85;;;;;;;;;;5069707;28;20210;-87
2022/03/03 01:17:06;;;;;;;18.95;14.73;;;;;;;;;;5069295;28;20199;-88
2022/03/03 01:19:33;;;;;;;21.33;14.27;;;0.00;81.90;;;;;;5069704;28;20677;-87
2022/03/03 01:22:01;;;;;;;19.15;13.68;;;;;;;;;;5068517;28;20317;-87
2022/03/03 01:24:29;;;;;;;22.63;14.85;;;;;;;;;;5068586;28;20262;-87
2022/03/03 01:26:58;;;;;;;19.38;14.90;;;-0.10;82.00;;;;;;5068523;28;20215;-88
2022/03/03 01:29:26;;;;;;;18.45;13.63;;;;;;;;;;5068944;28;20234;-87
2022/03/03 01:31:54;;;;;;;26.08;15.55;;;;;;;;;;5062756;28;20542;-87
2022/03/03 01:34:23;;;;;;;32.03;14.98;;;;;;;;;;5069022;28;20207;-87
2022/03/03 01:36:50;;;;;;;24.95;15.63;;;;;;;;;;5068945;28;20693;-87
2022/03/03 01:39:18;;;;;;;20.65;13.77;;;;;;;;;;5069019;28;20203;-88
2022/03/03 01:41:45;;;;;;;17.75;14.75;;;;;;;;;;5068505;28;20198;-87
2022/03/03 01:44:13;;;;;;;23.02;16.42;;;-0.10;81.80;;;;;;5068860;28;20207;-88
2022/03/03 01:46:49;;;;;;;24.25;15.10;;;-0.20;82.40;;;;;;5068619;28;20309;-87
2022/03/03 01:49:16;;;;;;;21.10;15.63;;;;;;;;;;5067801;28;20578;-87
2022/03/03 01:51:44;;;;;;;20.17;15.82;;;;;;;;;;5069395;28;20215;-87
2022/03/03 01:54:11;;;;;;;22.77;15.98;;;-0.10;81.80;;;;;;5068656;28;20207;-87
2022/03/03 01:56:38;;;;;;;26.60;15.30;;;;;;;;;;5068167;28;20522;-87
2022/03/03 01:59:06;;;;;;;26.50;15.55;;;;;;;;;;5068812;28;20289;-88
2022/03/03 02:01:35;;;;;;;19.58;15.15;;;-0.10;81.20;;;;;;5068169;28;20210;-88
2022/03/03 02:04:05;;;;;;;22.27;14.65;;;-0.20;81.20;;;;;;5068404;28;20195;-87
2022/03/03 02:06:32;;;;;;;23.58;14.68;;;-0.10;82.50;;;;;;5068609;28;20629;-87
2022/03/03 02:08:59;;;;;;;20.98;15.73;;;-0.30;81.90;;;;;;5068015;28;20219;-87
2022/03/03 02:11:27;;;;;;;21.88;15.57;;;;;;;;;;5067804;28;20191;-86
2022/03/03 02:13:56;;;;;;;29.10;15.32;;;;;;;;;;5068182;28;20289;-88
2022/03/03 02:16:23;;;;;;;22.63;16.45;;;;;;;;;;5068158;28;20253;-87
2022/03/03 02:18:52;;;;;;;20.85;16.23;;;-0.50;83.60;;;;;;5068170;28;20252;-88
2022/03/03 02:21:22;;;;;;;24.83;16.52;;;-0.40;83.60;;;;;;5067920;28;20203;-87
2022/03/03 02:23:50;;;;;;;23.95;16.02;;;-0.40;83.30;;;;;;5068551;28;20227;-87
2022/03/03 02:26:20;;;;;;;24.40;16.58;;;-0.40;83.30;;;;;;5064572;28;20292;-88
2022/03/03 02:28:48;;;;;;;22.85;15.68;;;-0.40;83.30;;;;;;5066372;28;20234;-88
2022/03/03 02:31:16;;;;;;;21.42;16.15;;;-0.40;82.30;;;;;;5067842;28;20205;-86
2022/03/03 02:33:43;;;;;;;23.00;15.70;;;;;;;;;;5067704;28;20277;-87
2022/03/03 02:36:18;;;;;;;26.88;14.90;;;-0.30;81.80;;;;;;5067356;28;20195;-87
2022/03/03 02:38:47;;;;;;;19.60;14.88;;;-0.40;82.40;;;;;;5067909;28;20688;-87
2022/03/03 02:41:15;;;;;;;21.23;15.68;;;;;;;;;;5067922;28;20200;-87
2022/03/03 02:43:43;;;;;;;18.40;15.70;;;;;;;;;;5067821;28;20191;-87
2022/03/03 02:46:10;;;;;;;24.90;15.65;;;-0.40;82.00;;;;;;5047913;28;20200;-87
2022/03/03 02:48:38;;;;;;;22.10;16.05;;;-0.50;92.50;;;;;;5065137;28;20684;-88
2022/03/03 02:51:06;;;;;;;24.50;17.90;;;-0.50;82.80;;;;;;5066604;28;20203;-87
2022/03/03 02:53:33;;;;;;;23.75;15.60;;;-0.60;82.90;;;;;;5067786;28;20195;-87
2022/03/03 02:56:02;;;;;;;21.13;14.75;;;-0.60;83.80;;;;;;5067876;28;20335;-87
2022/03/03 02:58:28;;;;;;;18.88;13.93;;;;;;;;;;5068117;28;20207;-87
2022/03/03 03:00:56;;;;;;;21.45;16.50;;;;;;;;;;5067577;28;20203;-87
2022/03/03 03:03:23;;;;;;;23.65;15.15;;;-0.80;84.30;;;;;;5067196;28;20718;-88
2022/03/03 03:05:50;;;;;;;21.50;14.95;;;;;;;;;;5048305;28;20403;-87
2022/03/03 03:08:17;;;;;;;33.90;14.82;;;-0.90;85.40;;;;;;5065192;28;20218;-87
2022/03/03 03:10:45;;;;;;;20.48;13.65;;;;;;;;;;5068133;28;20225;-88
2022/03/03 03:13:14;;;;;;;25.15;17.40;;;-0.90;85.80;;;;;;5067291;28;20689;-87
2022/03/03 03:15:42;;;;;;;21.70;15.68;;;0.90;87.30;;;;;;5067270;28;20643;-87
2022/03/03 03:18:10;;;;;;;17.08;14.05;;;-0.70;84.80;;;;;;5066808;28;20211;-87
2022/03/03 03:20:37;;;;;;;24.88;17.05;;;-0.70;84.50;;;;;;5067368;28;20214;-88
2022/03/03 03:23:05;;;;;;;21.65;15.85;;;;;;;;;;5060707;28;20323;-87
2022/03/03 03:25:32;;;;;;;22.73;16.38;;;;;;;;;;5067558;28;20203;-88
2022/03/03 03:27:59;;;;;;;22.60;17.55;;;-0.90;90.90;;;;;;5066811;28;20214;-87
2022/03/03 03:30:27;;;;;;;24.60;14.98;;;-0.10;84.60;;;;;;5067689;28;20227;-88
2022/03/03 03:32:54;;;;;;;21.33;18.13;;;;;;;;;;5067315;28;20245;-87
2022/03/03 03:35:21;;;;;;;23.25;16.38;;;-0.90;89.30;;;;;;5066984;28;20616;-87
2022/03/03 03:37:48;;;;;;;24.75;15.88;;;-0.90;84.20;;;;;;5066794;28;20274;-87
2022/03/03 03:40:16;;;;;;;23.75;16.20;;;;;;;;;;5061834;28;20285;-87
2022/03/03 03:42:43;;;;;;;24.83;17.35;;;-0.80;92.50;;;;;;5062875;28;20211;-87
2022/03/03 03:45:11;;;;;;;22.67;15.93;;;-1.10;92.90;;;;;;5069780;28;20272;-88
2022/03/03 03:47:40;;;;;;;24.80;16.50;;;-0.90;84.30;;;;;;5070915;28;20230;-87
2022/03/03 03:50:08;;;;;;;23.00;14.50;;;-0.40;85.10;;;;;;5069669;28;20247;-88
2022/03/03 03:52:36;;;;;;;19.63;14.57;;;;;;;;;;5071523;28;20327;-87
2022/03/03 03:55:03;;;;;;;22.63;15.05;;;-0.80;89.50;;;;;;5070511;28;20237;-86
2022/03/03 03:57:31;;;;;;;25.13;15.13;;;-0.80;84.60;;;;;;5070953;28;20199;-87
2022/03/03 03:59:58;;;;;;;19.92;14.30;;;;;;;;;;5071176;28;20207;-88
2022/03/03 04:02:25;;;;;;;23.88;16.48;;;-0.90;84.30;;;;;;5070856;28;20658;-87
2022/03/03 04:04:53;;;;;;;22.10;15.82;;;-0.80;84.90;;;;;;5070989;28;20241;-86
2022/03/03 04:07:20;;;;;;;22.00;15.02;;;-0.30;85.40;;;;;;5070317;28;20234;-88
2022/03/03 04:09:47;;;;;;;27.50;15.80;;;;;;;;;;5070500;28;20234;-87
2022/03/03 04:12:15;;;;;;;19.27;15.98;;;;;;;;;;5071704;28;20208;-87
2022/03/03 04:14:42;;;;;;;22.25;17.15;;;-0.80;84.00;;;;;;5070571;28;20623;-87
2022/03/03 04:17:09;;;;;;;26.35;17.60;;;;;;;;;;5063460;28;20219;-87
2022/03/03 04:19:36;;;;;;;20.27;16.67;;;;;;;;;;5070709;28;20214;-87
2022/03/03 04:22:05;;;;;;;26.35;18.90;;;-0.70;84.70;;;;;;5070875;28;20196;-87
2022/03/03 04:24:32;;;;;;;23.52;16.13;;;;;;;;;;5070564;28;20264;-88
2022/03/03 04:26:59;;;;;;;22.83;17.25;;;-0.70;84.70;;;;;;5070708;28;20291;-87
2022/03/03 04:29:26;;;;;;;27.20;16.52;;;;;;;;;;5073867;28;20233;-88
2022/03/03 04:31:54;;;;;;;20.30;15.00;;;-0.70;84.40;;;;;;5071164;28;20238;-88
2022/03/03 04:34:21;;;;;;;23.40;15.43;;;;;;;;;;5072102;28;20210;-86
2022/03/03 04:36:48;;;;;;;23.38;16.88;;;-0.80;83.90;;;;;;5072714;28;20195;-87
2022/03/03 04:39:16;;;;;;;25.33;18.02;;;1.50;86.70;;;;;;5073424;28;20281;-88
2022/03/03 04:41:44;;;;;;;24.42;15.63;;;;;;;;;;5058916;28;20253;-87
2022/03/03 04:44:11;;;;;;;18.92;15.77;;;;;;;;;;5070369;28;20233;-87
2022/03/03 04:46:38;;;;;;;22.42;15.40;;;;;;;;;;5070052;28;20250;-88
2022/03/03 04:49:05;;;;;;;22.10;15.25;;;;;;;;;;5070220;28;20218;-87
2022/03/03 04:51:36;;;;;;;24.20;16.40;;;-0.90;83.80;;;;;;5068800;28;20222;-88
2022/03/03 04:54:03;;;;;;;25.50;17.10;;;;;;;;;;5070142;28;20195;-87
2022/03/03 04:56:32;;;;;;;34.42;21.80;;;-0.80;83.80;;;;;;5069381;28;20282;-87
2022/03/03 04:58:59;;;;;;;48.78;29.23;;;;;;;;;;5070078;28;20598;-87
2022/03/03 05:01:26;;;;;;;43.42;25.15;;;;;;;;;;5068899;28;20216;-88
2022/03/03 05:03:53;;;;;;;41.03;25.35;;;-0.60;90.80;;;;;;5062814;28;20260;-87
2022/03/03 05:06:20;;;;;;;28.70;19.95;;;-0.80;84.30;;;;;;5060309;28;20206;-88
2022/03/03 05:08:48;;;;;;;30.58;19.95;;;;;;;;;;5070014;28;20608;-88
2022/03/03 05:11:15;;;;;;;30.60;20.23;;;;;;;;;;5069650;28;20227;-87
2022/03/03 05:13:43;;;;;;;36.28;20.17;;;-0.80;84.10;;;;;;5063202;28;20227;-87
2022/03/03 05:16:11;;;;;;;28.33;18.10;;;;;;;;;;5060861;28;20195;-87
2022/03/03 05:18:38;;;;;;;26.45;17.92;;;;;;;;;;5068778;28;20735;-88
2022/03/03 05:21:05;;;;;;;20.33;17.08;;;-1.00;84.50;;;;;;5070547;28;20234;-87
2022/03/03 05:23:32;;;;;;;26.80;18.48;;;-0.90;86.20;;;;;;5069923;28;20202;-88
2022/03/03 05:25:59;;;;;;;33.00;19.42;;;-1.00;85.40;;;;;;5069544;28;20203;-87
2022/03/03 05:28:26;;;;;;;21.75;18.60;;;;;;;;;;5068806;28;20207;-87
2022/03/03 05:30:55;;;;;;;25.63;18.10;;;-0.90;93.80;;;;;;5068852;28;20521;-88
2022/03/03 05:33:22;;;;;;;26.80;18.80;;;;;;;;;;5069990;28;20927;-87
2022/03/03 05:35:52;;;;;;;26.10;17.55;;;-0.90;85.30;;;;;;5068938;28;20195;-87
2022/03/03 05:38:19;;;;;;;39.03;16.20;;;;;;;;;;5069262;28;20230;-87
2022/03/03 05:40:47;;;;;;;24.00;16.85;;;;;;;;;;5063853;28;20199;-87
2022/03/03 05:43:14;;;;;;;24.45;17.25;;;;;;;;;;5069498;28;20199;-89
2022/03/03 05:45:41;;;;;;;27.02;17.95;;;;;;;;;;5068625;28;20191;-87
2022/03/03 05:48:11;;;;;;;27.15;18.75;;;-1.00;84.90;;;;;;5062840;28;20238;-88
2022/03/03 05:50:38;;;;;;;22.40;16.90;;;;;;;;;;5057688;28;20227;-87
2022/03/03 05:53:07;;;;;;;27.20;17.67;;;-1.00;85.40;;;;;;5068404;28;20274;-88
2022/03/03 05:55:38;;;;;;;20.90;16.50;;;-1.20;90.20;;;;;;5068653;28;20591;-88
2022/03/03 05:58:07;;;;;;;28.02;17.85;;;-1.20;93.40;;;;;;5067782;28;20195;-88
2022/03/03 06:00:35;;;;;;;23.85;17.08;;;-1.10;84.90;;;;;;5069000;28;20199;-88
2022/03/03 06:03:03;;;;;;;23.38;17.25;;;-1.20;84.60;;;;;;5064457;28;20207;-87
2022/03/03 06:05:33;;;;;;;24.70;17.80;;;-1.20;85.30;;;;;;5068149;28;20202;-87
2022/03/03 06:08:06;;;;;;;26.10;17.50;;;-1.30;85.40;;;;;;5058221;28;20263;-87
2022/03/03 06:10:34;;;;;;;31.35;17.52;;;-1.40;93.70;;;;;;5068405;28;20277;-88
2022/03/03 06:13:10;;;;;;;23.80;17.30;;;-1.30;86.80;;;;;;5068280;28;20655;-88
2022/03/03 06:15:39;;;;;;;26.40;16.95;;;-1.20;85.30;;;;;;5067480;28;20199;-87
2022/03/03 06:18:09;;;;;;;30.30;16.00;;;-1.20;85.30;;;;;;5059380;28;20200;-87
2022/03/03 06:20:38;;;;;;;24.63;17.98;;;-1.20;85.80;;;;;;5068365;28;20268;-87
2022/03/03 06:23:05;;;;;;;29.48;17.20;;;;;;;;;;5068370;28;20278;-88
2022/03/03 06:25:33;;;;;;;24.65;16.98;;;;;;;;;;5068190;28;20203;-88
2022/03/03 06:28:00;;;;;;;21.55;17.20;;;;;;;;;;5067984;28;20646;-88
2022/03/03 06:30:29;;;;;;;26.52;17.17;;;-1.20;85.50;;;;;;5067560;28;20243;-87
2022/03/03 06:32:56;;;;;;;26.05;17.88;;;;;;;;;;5067986;28;20296;-87
2022/03/03 06:35:23;;;;;;;25.42;16.75;;;-1.20;85.60;;;;;;5066493;28;20227;-87
2022/03/03 06:37:51;;;;;;;31.75;17.45;;;-1.30;93.80;;;;;;5056392;28;20732;-86
2022/03/03 06:40:18;;;;;;;31.48;16.85;;;-1.10;86.30;;;;;;5067071;28;20608;-87
2022/03/03 06:42:45;;;;;;;25.73;17.42;;;;;;;;;;5079259;28;20271;-87
2022/03/03 06:45:13;;;;;;;27.92;17.23;;;;;;;;;;5070383;28;20731;-87
2022/03/03 06:47:40;;;;;;;30.08;18.67;;;;;;;;;;5084162;28;20259;-87
2022/03/03 06:50:07;;;;;;;25.75;17.85;;;-1.40;90.10;;;;;;5072308;28;20199;-87
2022/03/03 06:52:36;;;;;;;23.20;17.63;;;-0.90;85.80;;;;;;5067543;28;20191;-87
2022/03/03 06:55:05;;;;;;;21.55;15.88;;;-0.90;91.40;;;;;;5074587;28;20267;-87
2022/03/03 06:57:36;;;;;;;27.65;17.48;;;-0.90;94.20;;;;;;5062320;28;20296;-88
2022/03/03 07:00:05;;;;;;;26.35;17.40;;;-0.30;88.30;;;;;;5067873;28;20593;-87
2022/03/03 07:02:32;;;;;;;28.88;19.48;;;-0.80;87.50;;;;;;5066880;28;20664;-86
2022/03/03 07:05:01;;;;;;;26.83;20.13;;;-0.50;86.70;;;;;;5067491;28;20237;-86
2022/03/03 07:07:29;;;;;;;26.00;18.92;;;0.80;88.80;;;;;;5047978;28;20327;-87
2022/03/03 07:09:57;;;;;;;25.42;19.15;;;-0.30;87.30;;;;;;5048468;28;20235;-87
2022/03/03 07:12:29;;;;;;;28.52;18.95;;;-0.10;87.30;;;;;;5067390;28;20226;-86
2022/03/03 07:14:56;;;;;;;27.13;17.77;;;;;;;;;;5067472;28;20268;-86
2022/03/03 07:17:32;;;;;;;29.70;18.55;;;1.10;92.90;;;;;;5066633;28;20261;-87
2022/03/03 07:20:05;;;;;;;31.85;20.15;;;1.20;85.80;;;;;;5065913;28;20684;-85
2022/03/03 07:22:35;;;;;;;27.00;17.92;;;1.70;84.20;;;;;;5067613;28;20693;-86
2022/03/03 07:25:05;;;;;;;30.40;19.63;;;1.80;81.30;;;;;;5067445;28;20252;-86
2022/03/03 07:27:34;;;;;;;29.25;20.13;;;2.10;80.10;;;;;;5066946;28;20248;-85
2022/03/03 07:30:09;;;;;;;28.85;20.45;;;1.40;84.00;;;;;;5067341;28;20276;-86
2022/03/03 07:32:37;;;;;;;28.27;18.95;;;1.50;80.80;;;;;;5067713;28;20206;-86
2022/03/03 07:35:09;;;;;;;27.20;18.05;;;1.30;81.20;;;;;;5067459;28;20210;-86
2022/03/03 07:37:40;;;;;;;29.42;19.95;;;1.30;80.40;;;;;;5066920;28;20195;-86
2022/03/03 07:40:09;;;;;;;25.90;19.73;;;1.30;81.10;;;;;;5066743;28;20200;-86
2022/03/03 07:42:37;;;;;;;28.23;18.35;;;1.50;81.30;;;;;;5067684;28;20207;-86
2022/03/03 07:45:07;;;;;;;31.95;21.17;;;1.70;80.70;;;;;;5066796;28;20236;-86
2022/03/03 07:47:34;;;;;;;29.15;17.98;;;;;;;;;;5066743;28;20229;-86
2022/03/03 07:50:01;;;;;;;25.95;18.50;;;1.70;79.40;;;;;;5066872;28;20203;-86
2022/03/03 07:52:29;;;;;;;29.65;20.05;;;1.80;80.30;;;;;;5067294;28;20314;-86
2022/03/03 07:54:56;;;;;;;25.70;19.40;;;1.80;79.70;;;;;;5062902;28;20258;-86
2022/03/03 07:57:28;;;;;;;29.58;19.23;;;1.90;79.70;;;;;;5066005;28;20199;-85
2022/03/03 08:00:02;;;;;;;26.00;18.98;;;1.90;79.30;;;;;;5067107;28;20294;-85
2022/03/03 08:02:32;;;;;;;25.83;19.40;;;2.00;79.70;;;;;;5064083;28;20211;-85
2022/03/03 08:05:01;;;;;;;28.30;19.85;;;1.90;79.10;;;;;;5060852;28;20538;-86
2022/03/03 08:07:29;;;;;;;28.42;18.83;;;2.00;78.60;;;;;;5066972;28;20238;-86
2022/03/03 08:10:00;;;;;;;28.80;19.55;;;2.10;89.30;;;;;;5065842;28;20219;-86
2022/03/03 08:12:28;;;;;;;29.60;19.25;;;2.10;78.00;;;;;;5067553;28;20227;-85
2022/03/03 08:14:57;;;;;;;26.48;19.60;;;2.20;77.80;;;;;;5065710;28;20230;-85
2022/03/03 08:17:24;;;;;;;24.33;17.95;;;2.40;77.90;;;;;;5066837;28;20199;-86
2022/03/03 08:19:54;;;;;;;25.27;18.70;;;2.40;87.30;;;;;;5064778;28;20210;-85
2022/03/03 08:22:24;;;;;;;25.92;19.15;;;2.50;78.00;;;;;;5047625;28;20208;-85
2022/03/03 08:24:54;;;;;;;26.13;18.77;;;2.60;76.50;;;;;;5060674;28;20291;-86
2022/03/03 08:27:22;;;;;;;27.95;20.05;;;2.60;76.40;;;;;;5063180;28;20241;-85
2022/03/03 08:29:49;;;;;;;29.60;18.75;;;2.70;76.30;;;;;;5067344;28;20294;-85
2022/03/03 08:32:19;;;;;;;27.67;18.88;;;2.70;87.00;;;;;;5068887;28;20705;-85
2022/03/03 08:34:55;;;;;;;30.65;19.05;;;2.90;76.40;;;;;;5070510;28;20216;-86
2022/03/03 08:37:29;;;;;;;29.30;19.15;;;3.00;75.70;;;;;;5070208;28;20238;-86
2022/03/03 08:39:57;;;;;;;30.30;20.88;;;3.00;75.60;;;;;;5066921;28;20218;-86
2022/03/03 08:42:27;;;;;;;27.70;18.75;;;3.20;76.20;;;;;;5050554;28;20633;-85
2022/03/03 08:45:02;;;;;;;29.00;19.70;;;3.30;75.80;;;;;;5059277;28;20646;-86
2022/03/03 08:47:30;;;;;;;28.15;19.38;;;3.50;76.00;;;;;;5050939;28;20462;-87
2022/03/03 08:49:59;;;;;;;29.55;20.58;;;3.80;75.90;;;;;;5069269;28;20227;-86
2022/03/03 08:52:27;;;;;;;30.92;19.48;;;3.70;73.90;;;;;;5063577;28;20289;-86
2022/03/03 08:54:55;;;;;;;26.88;19.75;;;3.70;74.80;;;;;;5069459;28;20203;-87
2022/03/03 08:57:22;;;;;;;33.47;20.23;;;3.90;84.80;;;;;;5055764;28;20659;-87
2022/03/03 08:59:49;;;;;;;28.48;21.33;;;4.10;75.00;;;;;;5061335;28;20199;-85
2022/03/03 09:02:17;;;;;;;28.40;18.17;;;4.50;83.40;;;;;;5069926;28;20264;-86
2022/03/03 09:04:47;;;;;;;30.65;20.02;;;4.60;72.70;;;;;;5061164;28;20282;-86
2022/03/03 09:07:14;;;;;;;28.70;20.42;;;4.90;82.10;;;;;;5068999;28;20211;-87
2022/03/03 09:09:42;;;;;;;24.30;19.38;;;5.00;71.60;;;;;;5069007;28;20195;-87
2022/03/03 09:12:09;;;;;;;29.77;18.73;;;5.00;70.60;;;;;;5069634;28;20231;-86
2022/03/03 09:14:36;;;;;;;27.33;19.77;;;5.00;69.50;;;;;;5068879;28;20207;-86
2022/03/03 09:17:04;;;;;;;26.88;19.33;;;5.10;69.80;;;;;;5051514;28;20223;-87
2022/03/03 09:19:31;;;;;;;26.80;19.10;;;5.10;69.70;;;;;;5056398;28;20680;-87
2022/03/03 09:21:59;;;;;;;37.55;20.55;;;5.10;69.50;;;;;;5060782;28;20326;-86
2022/03/03 09:24:26;;;;;;;23.45;19.92;;;5.00;68.50;;;;;;5067827;28;20215;-86
2022/03/03 09:26:54;;;;;;;25.05;19.30;;;5.00;78.40;;;;;;5067923;28;20755;-86
2022/03/03 09:29:21;;;;;;;25.40;19.52;;;4.90;67.90;;;;;;5068802;28;20264;-87
2022/03/03 09:31:49;;;;;;;30.95;21.15;;;4.90;68.60;;;;;;5067376;28;20704;-86
2022/03/03 09:34:15;;;;;;;26.65;19.83;;;5.10;69.90;;;;;;5068279;28;20227;-86
2022/03/03 09:36:43;;;;;;;27.80;20.40;;;5.20;70.20;;;;;;5068279;28;20256;-86
2022/03/03 09:39:11;;;;;;;25.30;19.92;;;5.30;68.70;;;;;;5069612;28;20203;-86
2022/03/03 09:41:38;;;;;;;26.85;20.40;;;5.60;67.80;;;;;;5065948;28;20227;-87
2022/03/03 09:44:05;;;;;;;30.83;21.20;;;5.50;67.20;;;;;;5068923;28;20299;-86
2022/03/03 09:46:35;;;;;;;28.48;20.13;;;5.40;66.90;;;;;;5067869;28;20215;-86
2022/03/03 09:49:03;;;;;;;31.08;21.15;;;5.40;68.20;;;;;;5069007;28;20195;-87
2022/03/03 09:51:30;;;;;;;30.83;21.27;;;5.50;68.40;;;;;;5066813;28;20223;-86
2022/03/03 09:53:57;;;;;;;26.10;21.63;;;5.50;68.30;;;;;;5069087;28;20256;-86
2022/03/03 09:56:26;;;;;;;27.20;20.95;;;5.40;68.30;;;;;;5068770;28;20575;-87
2022/03/03 09:58:52;;;;;;;31.52;22.20;;;5.50;69.00;;;;;;5068354;28;20901;-86
2022/03/03 10:01:20;;;;;;;31.40;22.10;;;5.30;70.20;;;;;;5068176;28;20205;-86
2022/03/03 10:03:48;;;;;;;31.63;19.35;;;5.50;68.70;;;;;;5068508;28;20273;-85
2022/03/03 10:06:15;;;;;;;31.38;20.63;;;5.50;67.70;;;;;;5068153;28;20666;-86
2022/03/03 10:08:42;;;;;;;28.70;21.13;;;5.50;67.40;;;;;;5069127;28;20236;-86
2022/03/03 10:11:09;;;;;;;29.75;19.70;;;6.30;77.90;;;;;;5068502;28;20227;-86
2022/03/03 10:13:49;;;;;;;30.58;22.00;;;5.70;68.30;;;;;;5068470;28;20328;-86
2022/03/03 10:16:24;;;;;;;30.60;23.60;;;6.10;68.30;;;;;;5061132;28;20309;-84
2022/03/03 10:18:59;;;;;;;29.33;19.73;;;6.10;67.60;;;;;;5068448;28;20677;-84
2022/03/03 10:21:28;;;;;;;30.10;21.83;;;5.90;66.00;;;;;;5068758;28;20653;-84
2022/03/03 10:23:56;;;;;;;29.38;19.55;;;6.10;67.20;;;;;;5068385;28;20535;-85
2022/03/03 10:26:34;;;;;;;28.70;19.73;;;6.20;66.60;;;;;;5067233;28;20352;-85
2022/03/03 10:29:03;;;;;;;31.75;22.58;;;6.30;74.60;;;;;;5068169;28;20245;-85
2022/03/03 10:31:30;;;;;;;35.08;21.35;;;6.20;66.20;;;;;;5068349;28;20701;-87
2022/03/03 10:33:57;;;;;;;29.98;23.25;;;6.10;65.50;;;;;;5067938;28;20673;-86
2022/03/03 10:36:26;;;;;;;27.33;21.05;;;6.10;65.60;;;;;;5067485;28;20283;-85
2022/03/03 10:38:55;;;;;;;22.50;17.95;;;6.10;66.40;;;;;;5063045;28;20196;-86
2022/03/03 10:41:37;;;;;;;28.85;20.98;;;6.20;64.80;;;;;;5062460;28;20211;-85
2022/03/03 10:44:08;;;;;;;28.30;20.67;;;6.30;64.30;;;;;;5068042;28;20191;-85
2022/03/03 10:46:36;;;;;;;33.38;20.65;;;6.40;63.90;;;;;;5066807;28;20204;-85
2022/03/03 10:49:20;;;;;;;30.85;20.90;;;6.40;64.40;;;;;;5067280;28;20662;-86
2022/03/03 10:51:47;;;;;;;27.48;19.45;;;6.50;64.30;;;;;;5046758;28;20289;-85
2022/03/03 10:54:14;;;;;;;29.35;20.17;;;6.60;63.50;;;;;;5051219;28;20199;-85
2022/03/03 10:56:47;;;;;;;28.52;21.80;;;6.70;63.10;;;;;;5066834;28;20195;-86
2022/03/03 10:59:22;;;;;;;28.75;20.10;;;6.80;62.40;;;;;;5055374;28;20199;-86
2022/03/03 11:01:49;;;;;;;27.75;20.08;;;6.70;62.40;;;;;;5067169;28;20203;-86
2022/03/03 11:04:19;;;;;;;23.67;19.17;;;6.60;62.70;;;;;;5067614;28;20207;-86
2022/03/03 11:06:48;;;;;;;26.50;19.85;;;6.60;61.50;;;;;;5066634;28;21653;-86
2022/03/03 11:09:16;;;;;;;28.98;19.88;;;6.60;61.50;;;;;;5068025;28;20278;-86
2022/03/03 11:11:43;;;;;;;27.48;19.73;;;6.70;61.10;;;;;;5061320;28;20262;-86
2022/03/03 11:14:11;;;;;;;25.58;19.60;;;6.70;59.90;;;;;;5067676;28;20278;-86
2022/03/03 11:16:41;;;;;;;23.70;19.42;;;6.70;70.00;;;;;;5067458;28;20209;-86
2022/03/03 11:19:09;;;;;;;28.00;21.02;;;6.20;69.20;;;;;;5066579;28;20354;-86
2022/03/03 11:21:36;;;;;;;25.20;18.98;;;6.90;61.00;;;;;;5068220;28;20206;-86
2022/03/03 11:24:04;;;;;;;29.33;20.27;;;6.90;61.20;;;;;;5066455;28;20215;-86
2022/03/03 11:26:34;;;;;;;27.00;19.05;;;7.00;59.70;;;;;;5066154;28;20261;-86
2022/03/03 11:29:10;;;;;;;27.85;18.67;;;7.00;59.70;;;;;;5067577;28;20282;-86
2022/03/03 11:31:39;;;;;;;23.80;17.58;;;7.20;66.90;;;;;;5066636;28;20297;-86
2022/03/03 11:34:20;;;;;;;26.80;17.90;;;7.10;57.70;;;;;;5066392;28;20320;-86
2022/03/03 11:36:47;;;;;;;26.58;17.70;;;7.10;58.90;;;;;;5066597;28;20274;-86
2022/03/03 11:39:36;;;;;;;23.08;17.30;;;7.20;58.40;;;;;;5061818;28;20199;-85
2022/03/03 11:42:24;;;;;;;26.73;18.60;;;7.30;58.60;;;;;;5047641;28;20769;-86
2022/03/03 11:44:53;;;;;;;32.67;18.55;;;7.40;58.50;;;;;;5065564;28;20622;-85
2022/03/03 11:47:25;;;;;;;26.00;19.80;;;7.40;58.20;;;;;;5066797;28;20223;-85
2022/03/03 11:50:18;;;;;;;24.58;18.13;;;7.50;57.70;;;;;;5067513;28;20219;-85
2022/03/03 11:52:51;;;;;;;22.00;18.50;;;7.50;57.40;;;;;;5057857;28;20235;-86
2022/03/03 11:55:30;;;;;;;21.08;17.63;;;7.50;61.40;;;;;;5067042;28;20196;-86
2022/03/03 11:58:00;;;;;;;22.98;16.58;;;7.60;57.70;;;;;;5067023;28;20666;-85
2022/03/03 12:00:27;;;;;;;26.55;19.65;;;7.70;57.70;;;;;;5067888;28;20681;-86
2022/03/03 12:03:00;;;;;;;26.42;19.17;;;6.00;63.50;;;;;;5062599;28;21059;-86
2022/03/03 12:05:46;;;;;;;24.98;17.60;;;7.80;57.20;;;;;;5060775;28;20272;-86
2022/03/03 12:08:43;;;;;;;27.27;18.20;;;8.30;57.00;;;;;;5068527;28;20212;-86
2022/03/03 12:11:13;;;;;;;23.00;16.73;;;8.70;62.20;;;;;;4987665;28;20690;-86
2022/03/03 12:13:49;;;;;;;22.45;17.38;;;8.00;55.30;;;;;;5038097;28;20244;-86
2022/03/03 12:16:25;;;;;;;22.48;15.05;;;8.30;55.10;;;;;;5070217;28;20603;-86
2022/03/03 12:19:12;;;;;;;26.40;18.27;;;8.20;54.90;;;;;;5070513;28;20202;-85
2022/03/03 12:21:41;;;;;;;33.08;17.38;;;8.10;54.70;;;;;;5070151;28;20307;-86
2022/03/03 12:24:28;;;;;;;25.63;18.35;;;8.00;54.70;;;;;;5070567;28;20209;-86
2022/03/03 12:27:15;;;;;;;24.15;17.05;;;8.30;54.40;;;;;;5069528;28;20254;-86
2022/03/03 12:29:57;;;;;;;25.48;16.40;;;8.30;54.70;;;;;;5070032;28;20306;-85
2022/03/03 12:32:41;;;;;;;21.00;15.57;;;8.30;54.10;;;;;;5067814;28;20322;-86
2022/03/03 12:35:13;;;;;;;21.45;16.13;;;8.30;53.90;;;;;;5069926;28;20684;-86
2022/03/03 12:37:45;;;;;;;22.15;15.23;;;8.30;52.60;;;;;;5070211;28;20526;-86
2022/03/03 12:40:14;;;;;;;23.27;14.98;;;8.40;53.00;;;;;;5068579;28;20211;-86
2022/03/03 12:42:44;;;;;;;21.17;15.80;;;8.30;53.00;;;;;;5070375;28;20210;-86
2022/03/03 12:45:14;;;;;;;24.60;17.08;;;8.50;54.00;;;;;;5070342;28;20738;-86
2022/03/03 12:47:43;;;;;;;19.88;15.57;;;8.50;54.00;;;;;;5070247;28;20229;-86
2022/03/03 12:50:14;;;;;;;20.52;16.27;;;8.60;54.10;;;;;;5064714;28;20212;-86
2022/03/03 12:52:43;;;;;;;20.27;15.38;;;8.60;54.70;;;;;;5070132;28;20706;-86
2022/03/03 12:55:11;;;;;;;19.20;16.43;;;8.70;53.60;;;;;;5069415;28;20248;-86
2022/03/03 12:57:40;;;;;;;23.10;15.60;;;8.60;54.40;;;;;;5069510;28;20633;-86
2022/03/03 13:00:10;;;;;;;23.20;15.83;;;8.70;53.70;;;;;;5069490;28;21014;-86
2022/03/03 13:02:51;;;;;;;21.05;16.13;;;8.70;53.20;;;;;;5063775;28;20670;-86
2022/03/03 13:05:35;;;;;;;23.10;17.27;;;8.80;53.40;;;;;;5056691;28;20209;-86
2022/03/03 13:08:03;;;;;;;28.37;16.93;;;8.80;53.10;;;;;;5067399;28;20684;-86